Time;durP1;ratioP1;P1;durP2;ratioP2;P2;SDS_P1;SDS_P2;PMS_P1;PMS_P2;Temp;Humidity;BMP_temperature;BMP_pressure;BME280_temperature;BME280_humidity;BME280_pressure;Samples;Min_cycle;Max_cycle;Signal;HPM_P1;HPM_P2
2022/02/28 03:02:17;;;;;;;;;;;;;;;11.16;56.09;101556.03;145002;931;1016;-90
2022/02/28 03:50:46;;;;;;;;;;;;;;;9.06;62.76;101557.88;145002;932;1015;-90
2022/02/28 04:47:23;;;;;;;;;;;;;;;10.13;58.36;101578.44;145002;928;1017;-92
2022/02/28 05:49:24;;;;;;;;;;;;;;;8.58;64.05;101645.19;145001;569;2000;-87
2022/02/28 05:54:31;;;;;;;;;;;;;;;8.47;63.63;101654.97;145002;615;1398;-83
2022/02/28 06:04:39;;;;;;;;;;;;;;;9.06;63.19;101652.84;145002;568;1424;0
2022/02/28 06:07:40;;;;;;;;;;;;;;;9.16;61.66;101652.50;145001;603;2000;-89
2022/02/28 06:15:19;;;;;;;;;;;;;;;9.30;62.72;101662.66;145002;563;1434;-87
2022/02/28 06:20:27;;;;;;;;;;;;;;;9.01;62.93;101655.19;145002;570;1429;-86
2022/02/28 06:22:56;;;;;;;;;;;;;;;8.75;63.29;101655.53;145002;569;1458;-86
2022/02/28 06:25:48;;;;;;;;;;;;;;;;;;;;;
2022/02/28 06:28:21;;;;;;;;;;;;;;;8.92;63.42;101662.47;145002;655;1372;-87
2022/02/28 06:30:49;;;;;;;;;;;;;;;9.02;62.58;101663.84;145001;605;2000;-86
2022/02/28 06:33:19;;;;;;;;;;;;;;;8.86;63.29;101659.56;145002;921;1015;-86
2022/02/28 06:35:55;;;;;;;;;;;;;;;8.99;62.40;101659.41;145002;485;1492;-85
2022/02/28 06:38:22;;;;;;;;;;;;;;;9.02;61.87;101664.75;145002;921;1016;-86
2022/02/28 06:41:03;;;;;;;;;;;;;;;9.33;62.26;101665.41;145001;918;2000;-86
2022/02/28 06:43:34;;;;;;;;;;;;;;;9.08;62.95;101654.72;145002;921;1017;-86
2022/02/28 06:46:01;;;;;;;;;;;;;;;9.24;61.66;101660.63;145002;915;1016;-88
2022/02/28 06:48:27;;;;;;;;;;;;;;;9.24;61.81;101671.91;145002;921;1017;-87
2022/02/28 06:50:53;;;;;;;;;;;;;;;9.14;60.83;101672.25;145002;919;1016;-84
2022/02/28 06:53:22;;;;;;;;;;;;;;;9.23;61.66;101675.31;145002;917;1018;-82
2022/02/28 06:55:48;;;;;;;;;;;;;;;9.49;60.41;101677.44;145002;918;1019;-85
2022/02/28 06:58:26;;;;;;;;;;;;;;;9.44;59.64;101682.38;145002;921;1016;-85
2022/02/28 07:00:53;;;;;;;;;;;;;;;9.64;59.51;101680.78;145002;779;1210;-84
2022/02/28 07:03:21;;;;;;;;;;;;;;;9.53;59.28;101677.66;145002;921;1017;-84
2022/02/28 07:05:49;;;;;;;;;;;;;;;9.33;59.37;101687.00;145002;920;1016;-84
2022/02/28 07:08:16;;;;;;;;;;;;;;;9.34;59.18;101691.41;145002;922;1017;-87
2022/02/28 07:10:44;;;;;;;;;;;;;;;9.51;59.08;101692.22;145002;919;1017;-86
2022/02/28 07:13:10;;;;;;;;;;;;;;;9.40;57.92;101689.12;145002;922;1016;-87
2022/02/28 07:15:38;;;;;;;;;;;;;;;9.39;58.80;101684.72;145002;920;1017;-86
2022/02/28 07:18:04;;;;;;;;;;;;;;;9.44;58.50;101685.84;145002;921;1018;-86
2022/02/28 07:20:30;;;;;;;;;;;;;;;9.39;58.32;101696.81;145002;920;1016;-85
2022/02/28 07:23:10;;;;;;;;;;;;;;;9.50;58.40;101702.53;145002;917;1018;-82
2022/02/28 07:25:38;;;;;;;;;;;;;;;9.73;58.25;101699.34;145002;919;1019;-83
2022/02/28 07:28:04;;;;;;;;;;;;;;;9.73;57.26;101696.75;145002;921;1019;-84
2022/02/28 07:30:31;;;;;;;;;;;;;;;9.55;58.11;101701.06;145002;920;1016;-85
2022/02/28 07:32:57;;;;;;;;;;;;;;;9.83;58.20;101707.59;145002;921;1017;-84
2022/02/28 07:35:23;;;;;;;;;;;;;;;9.76;57.61;101702.09;145002;920;1016;-84
2022/02/28 07:37:49;;;;;;;;;;;;;;;9.68;58.70;101706.03;145002;922;1018;-85
2022/02/28 07:40:15;;;;;;;;;;;;;;;9.72;58.71;101709.66;145002;915;1017;-84
2022/02/28 07:42:42;;;;;;;;;;;;;;;9.70;58.09;101714.75;145002;921;1020;-86
2022/02/28 07:45:08;;;;;;;;;;;;;;;9.61;58.88;101722.09;145002;920;1017;-84
2022/02/28 07:47:34;;;;;;;;;;;;;;;9.61;59.26;101719.50;145002;921;1020;-85
2022/02/28 07:50:01;;;;;;;;;;;;;;;9.43;58.23;101730.75;145002;919;1016;-85
2022/02/28 07:52:27;;;;;;;;;;;;;;;9.56;58.67;101726.16;145002;921;1019;-86
2022/02/28 07:54:53;;;;;;;;;;;;;;;9.47;57.89;101728.31;145002;919;1016;-84
2022/02/28 07:57:19;;;;;;;;;;;;;;;9.41;57.82;101732.34;145002;917;1018;-86
2022/02/28 07:59:45;;;;;;;;;;;;;;;9.54;58.41;101727.78;145002;919;1016;-87
2022/02/28 08:02:11;;;;;;;;;;;;;;;9.41;57.98;101726.28;145002;917;1018;-87
2022/02/28 08:04:37;;;;;;;;;;;;;;;9.48;57.59;101730.06;145002;919;1016;-85
2022/02/28 08:07:03;;;;;;;;;;;;;;;9.47;57.25;101733.50;145002;917;1020;-83
2022/02/28 08:09:31;;;;;;;;;;;;;;;9.43;57.72;101730.75;145001;919;2000;-84
2022/02/28 08:11:58;;;;;;;;;;;;;;;9.30;58.38;101733.50;145002;921;1018;-87
2022/02/28 08:14:24;;;;;;;;;;;;;;;9.33;58.50;101736.25;145002;919;1020;-87
2022/02/28 08:16:50;;;;;;;;;;;;;;;9.41;58.49;101734.94;145002;917;1016;-88
2022/02/28 08:19:18;;;;;;;;;;;;;;;9.60;58.30;101738.47;145002;915;1015;-86
2022/02/28 08:21:44;;;;;;;;;;;;;;;9.55;58.06;101734.75;145001;921;2000;-88
2022/02/28 08:24:11;;;;;;;;;;;;;;;9.50;57.74;101741.41;145002;919;1019;-87
2022/02/28 08:26:37;;;;;;;;;;;;;;;9.59;57.41;101742.75;145002;921;1017;-86
2022/02/28 08:29:03;;;;;;;;;;;;;;;9.54;56.63;101738.16;145002;919;1016;-87
2022/02/28 08:31:29;;;;;;;;;;;;;;;9.55;57.16;101750.31;145002;921;1019;-86
2022/02/28 08:33:55;;;;;;;;;;;;;;;9.52;57.20;101742.37;145002;919;1016;-87
2022/02/28 08:36:21;;;;;;;;;;;;;;;9.51;57.45;101741.47;145002;918;1017;-87
2022/02/28 08:38:56;;;;;;;;;;;;;;;9.69;56.71;101741.53;145002;919;1018;-89
2022/02/28 08:41:22;;;;;;;;;;;;;;;9.71;57.32;101739.88;145002;921;1016;-88
2022/02/28 08:43:52;;;;;;;;;;;;;;;9.87;56.98;101732.88;145002;920;1022;-90
2022/02/28 08:48:55;;;;;;;;;;;;;;;9.70;56.70;101745.87;145002;575;1423;-85
2022/02/28 09:04:17;;;;;;;;;;;;;;;10.40;53.34;101750.12;145002;630;1477;-86
2022/02/28 09:06:48;;;;;;;;;;;;;;;10.60;54.73;101750.19;145002;921;1019;-86
2022/02/28 09:09:15;;;;;;;;;;;;;;;10.48;55.10;101748.81;145002;919;1016;-88
2022/02/28 09:11:46;;;;;;;;;;;;;;;10.88;55.15;101748.03;145002;921;1016;-89
2022/02/28 09:14:14;;;;;;;;;;;;;;;10.71;52.00;101743.78;145002;919;1017;-89
2022/02/28 09:16:45;;;;;;;;;;;;;;;10.59;53.41;101741.47;145002;921;1018;-89
2022/02/28 09:24:25;;;;;;;;;;;;;;;10.64;51.91;101746.88;145002;708;1281;-86
2022/02/28 09:34:46;;;;;;;;;;;;;;;10.82;50.49;101741.66;145001;598;2000;-88
2022/02/28 09:37:12;;;;;;;;;;;;;;;10.98;52.32;101746.72;145002;920;1016;-89
2022/02/28 09:40:05;;;;;;;;;;;;;;;;;;;;;
2022/02/28 09:42:54;;;;;;;;;;;;;;;10.82;49.80;101732.16;145002;917;1019;-88
2022/02/28 09:45:51;;;;;;;;;;;;;;;;;;;;;
2022/02/28 09:48:19;;;;;;;;;;;;;;;11.14;48.89;101735.28;145002;919;1018;-89
2022/02/28 09:50:49;;;;;;;;;;;;;;;11.02;49.55;101735.66;145002;919;1016;-89
2022/02/28 09:53:16;;;;;;;;;;;;;;;11.09;48.95;101736.81;145002;921;1016;-88
2022/02/28 09:58:44;;;;;;;;;;;;;;;11.47;51.34;101755.78;145002;905;1017;-87
2022/02/28 10:01:18;;;;;;;;;;;;;;;11.31;49.88;101742.91;145002;914;1020;-89
2022/02/28 10:03:44;;;;;;;;;;;;;;;11.47;51.33;101745.37;145002;917;1019;-88
2022/02/28 10:06:11;;;;;;;;;;;;;;;11.37;49.74;101746.69;145002;915;1018;-89
2022/02/28 10:08:46;;;;;;;;;;;;;;;11.54;51.45;101744.78;145002;917;1019;-90
2022/02/28 10:11:42;;;;;;;;;;;;;;;;;;;;;
2022/02/28 10:14:13;;;;;;;;;;;;;;;11.29;55.09;101749.78;145002;880;1018;-89
2022/02/28 10:17:12;;;;;;;;;;;;;;;;;;;;;
2022/02/28 10:20:00;;;;;;;;;;;;;;;11.66;53.78;101752.25;145002;918;1017;-87
2022/02/28 10:23:17;;;;;;;;;;;;;;;;;;;;;
2022/02/28 10:26:22;;;;;;;;;;;;;;;;;;;;;
2022/02/28 10:29:11;;;;;;;;;;;;;;;11.49;53.22;101735.03;145002;911;1021;-87
2022/02/28 10:31:59;;;;;;;;;;;;;;;11.69;53.26;101749.78;145002;916;1020;-86
2022/02/28 10:39:37;;;;;;;;;;;;;;;11.92;52.95;101740.31;145002;647;1459;-87
2022/02/28 10:42:10;;;;;;;;;;;;;;;12.03;53.58;101739.88;145002;921;1017;-89
2022/02/28 10:44:36;;;;;;;;;;;;;;;11.31;57.80;101748.13;145002;919;1017;-88
2022/02/28 10:47:06;;;;;;;;;;;;;;;11.48;57.16;101746.25;145002;922;1021;-88
2022/02/28 10:49:33;;;;;;;;;;;;;;;11.61;55.30;101743.34;145002;919;1019;-87
2022/02/28 10:52:01;;;;;;;;;;;;;;;11.64;55.72;101740.84;145002;921;1017;-87
2022/02/28 10:54:53;;;;;;;;;;;;;;;11.74;54.95;101735.22;145002;911;1019;-86
2022/02/28 10:57:28;;;;;;;;;;;;;;;11.92;54.54;101737.72;145002;917;1018;-87
2022/02/28 11:00:16;;;;;;;;;;;;;;;;;;;;;
2022/02/28 11:03:07;;;;;;;;;;;;;;;11.91;54.49;101735.91;145002;917;1017;-88
2022/02/28 11:08:30;;;;;;;;;;;;;;;11.93;54.38;101736.91;145002;615;1375;-89
2022/02/28 11:11:27;;;;;;;;;;;;;;;11.93;54.84;101734.31;145002;920;1016;-88
2022/02/28 11:13:55;;;;;;;;;;;;;;;11.91;55.64;101727.22;145002;919;1016;-88
2022/02/28 11:16:22;;;;;;;;;;;;;;;11.83;55.19;101728.63;145002;921;1016;-89
2022/02/28 11:18:53;;;;;;;;;;;;;;;11.95;54.64;101734.38;145002;919;1016;-90
2022/02/28 11:21:20;;;;;;;;;;;;;;;11.72;55.12;101738.59;145002;921;1017;-90
2022/02/28 11:23:48;;;;;;;;;;;;;;;11.56;54.80;101732.72;145002;918;1017;-88
2022/02/28 11:26:15;;;;;;;;;;;;;;;11.64;54.94;101737.38;145002;646;1243;-90
2022/02/28 11:28:41;;;;;;;;;;;;;;;11.39;54.36;101733.72;145002;921;1016;-89
2022/02/28 11:31:12;;;;;;;;;;;;;;;11.21;54.17;101734.72;145002;918;1016;-91
2022/02/28 11:33:50;;;;;;;;;;;;;;;11.23;52.74;101734.78;145002;921;1016;-88
2022/02/28 11:36:17;;;;;;;;;;;;;;;11.25;53.74;101726.25;145002;919;1017;-86
2022/02/28 11:38:44;;;;;;;;;;;;;;;11.15;54.47;101720.56;145002;920;1016;-89
2022/02/28 11:41:11;;;;;;;;;;;;;;;11.32;54.50;101731.72;145002;919;1016;-88
2022/02/28 11:43:54;;;;;;;;;;;;;;;11.10;55.29;101722.97;145002;921;1017;-90
2022/02/28 11:46:29;;;;;;;;;;;;;;;11.23;54.90;101722.69;145002;918;1021;-88
2022/02/28 11:51:34;;;;;;;;;;;;;;;11.20;55.48;101729.50;145002;930;1016;-86
2022/02/28 11:56:50;;;;;;;;;;;;;;;11.27;55.14;101725.44;145002;575;1392;-87
2022/02/28 11:59:18;;;;;;;;;;;;;;;11.23;55.01;101724.38;145002;919;1016;-87
2022/02/28 12:02:09;;;;;;;;;;;;;;;11.36;55.08;101725.84;145002;917;1016;-88
2022/02/28 12:04:38;;;;;;;;;;;;;;;11.39;54.94;101725.94;145002;919;1022;-88
2022/02/28 12:07:09;;;;;;;;;;;;;;;11.21;54.39;101726.91;145002;917;1019;-90
2022/02/28 12:09:39;;;;;;;;;;;;;;;11.18;53.95;101725.91;145001;876;1998;-88
2022/02/28 12:12:19;;;;;;;;;;;;;;;11.15;53.91;101724.09;145002;920;1016;-89
2022/02/28 12:15:17;;;;;;;;;;;;;;;11.25;54.05;101727.97;145002;921;1016;-90
2022/02/28 12:17:50;;;;;;;;;;;;;;;10.89;53.68;101741.09;145002;915;1018;-88
2022/02/28 12:20:43;;;;;;;;;;;;;;;11.02;53.87;101735.66;145002;918;1018;-87
2022/02/28 12:23:10;;;;;;;;;;;;;;;11.02;53.99;101732.16;145002;918;1016;-86
2022/02/28 12:30:55;;;;;;;;;;;;;;;11.20;53.75;101732.97;145002;657;1318;-90
2022/02/28 12:33:48;;;;;;;;;;;;;;;11.21;53.34;101731.25;145002;636;1483;-87
2022/02/28 12:41:30;;;;;;;;;;;;;;;10.91;54.22;101742.06;145002;620;1393;-89
2022/02/28 12:44:01;;;;;;;;;;;;;;;10.85;54.50;101739.22;145002;918;1017;-90
2022/02/28 12:46:41;;;;;;;;;;;;;;;;;;;;;
2022/02/28 12:49:24;;;;;;;;;;;;;;;10.70;54.72;101741.97;145002;915;1021;-85
2022/02/28 12:51:53;;;;;;;;;;;;;;;10.88;54.32;101744.50;145002;915;1019;-89
2022/02/28 12:54:23;;;;;;;;;;;;;;;10.49;55.48;101747.09;145002;917;1018;-88
2022/02/28 12:56:55;;;;;;;;;;;;;;;10.53;56.28;101752.50;145002;915;1020;-90
2022/02/28 12:59:32;;;;;;;;;;;;;;;10.66;54.96;101748.75;145002;916;1017;-87
2022/02/28 13:01:59;;;;;;;;;;;;;;;10.70;54.59;101753.25;145002;915;1017;-88
2022/02/28 13:04:26;;;;;;;;;;;;;;;10.38;56.88;101746.56;145002;913;1018;-88
2022/02/28 13:07:09;;;;;;;;;;;;;;;10.12;58.13;101754.00;145002;915;1018;-86
2022/02/28 13:09:35;;;;;;;;;;;;;;;10.27;56.39;101747.75;145002;917;1018;-87
2022/02/28 13:12:04;;;;;;;;;;;;;;;10.31;56.57;101762.66;145002;915;1019;-91
2022/02/28 13:14:30;;;;;;;;;;;;;;;10.03;57.87;101753.53;145002;917;1018;-88
2022/02/28 13:16:57;;;;;;;;;;;;;;;10.19;57.24;101756.88;145002;911;1020;-90
2022/02/28 13:22:00;;;;;;;;;;;;;;;9.98;59.37;101755.03;145002;928;1016;-89
2022/02/28 13:29:37;;;;;;;;;;;;;;;9.38;64.02;101744.25;145002;464;1433;-85
2022/02/28 13:32:08;;;;;;;;;;;;;;;9.45;62.35;101741.19;145002;921;1016;-86
2022/02/28 13:34:37;;;;;;;;;;;;;;;9.42;63.45;101744.50;145002;919;1018;-89
2022/02/28 13:37:04;;;;;;;;;;;;;;;9.15;64.08;101735.31;145002;921;1016;-89
2022/02/28 13:39:32;;;;;;;;;;;;;;;9.30;63.25;101737.81;145002;919;1016;-87
2022/02/28 13:42:05;;;;;;;;;;;;;;;9.31;62.66;101745.66;145002;922;1017;-88
2022/02/28 13:44:36;;;;;;;;;;;;;;;9.31;63.96;101750.84;145002;919;1016;-89
2022/02/28 13:47:05;;;;;;;;;;;;;;;9.53;61.99;101749.31;145002;939;1016;-90
2022/02/28 13:49:36;;;;;;;;;;;;;;;9.74;60.56;101749.53;145002;919;1019;-87
2022/02/28 13:52:07;;;;;;;;;;;;;;;9.69;62.59;101759.66;145001;920;2000;-90
2022/02/28 13:54:34;;;;;;;;;;;;;;;9.70;62.63;101756.25;145002;919;1018;-90
2022/02/28 13:57:16;;;;;;;;;;;;;;;9.86;60.14;101750.09;145002;921;1016;-87
2022/02/28 14:10:05;;;;;;;;;;;;;;;10.57;58.08;101756.13;145003;932;1029;-88
2022/02/28 14:28:13;;;;;;;;;;;;;;;11.25;56.48;101759.16;145001;667;2000;-89
2022/02/28 14:30:40;;;;;;;;;;;;;;;11.33;56.34;101760.38;145002;575;1487;-87
2022/02/28 14:33:11;;;;;;;;;;;;;;;11.35;56.56;101765.63;145002;921;1016;-91
2022/02/28 14:36:01;;;;;;;;;;;;;;;11.40;56.01;101765.00;145002;920;1019;-88
2022/02/28 14:38:28;;;;;;;;;;;;;;;11.43;55.98;101767.72;145002;921;1017;-90
2022/02/28 14:41:10;;;;;;;;;;;;;;;11.49;55.45;101772.31;145002;919;1021;-91
2022/02/28 14:49:10;;;;;;;;;;;;;;;11.71;55.32;101779.31;145001;779;2000;-87
2022/02/28 14:54:16;;;;;;;;;;;;;;;11.80;55.14;101794.41;145002;685;1307;-86
2022/02/28 14:56:48;;;;;;;;;;;;;;;11.82;55.01;101790.19;145002;924;1016;-89
2022/02/28 15:01:52;;;;;;;;;;;;;;;11.71;55.66;101804.47;145002;715;1286;-89
2022/02/28 15:04:18;;;;;;;;;;;;;;;11.76;55.65;101797.72;145002;921;1016;-84
2022/02/28 15:06:44;;;;;;;;;;;;;;;11.76;55.71;101795.13;145002;919;1017;-90
2022/02/28 15:09:11;;;;;;;;;;;;;;;11.80;54.92;101803.13;145002;921;1016;-87
2022/02/28 15:11:37;;;;;;;;;;;;;;;11.79;55.52;101800.47;145002;919;1016;-90
2022/02/28 15:14:07;;;;;;;;;;;;;;;11.79;55.51;101797.84;145002;921;1020;-89
2022/02/28 15:16:36;;;;;;;;;;;;;;;11.79;55.43;101800.47;145002;919;1018;-89
2022/02/28 15:19:05;;;;;;;;;;;;;;;11.80;55.34;101802.22;145002;921;1016;-89
2022/02/28 15:21:30;;;;;;;;;;;;;;;11.76;56.03;101805.53;145002;919;1016;-88
2022/02/28 15:23:56;;;;;;;;;;;;;;;11.77;56.11;101808.19;145002;917;1017;-89
2022/02/28 15:26:23;;;;;;;;;;;;;;;11.79;55.89;101810.88;145002;934;1016;-87
2022/02/28 15:28:57;;;;;;;;;;;;;;;11.80;55.71;101813.53;145002;921;1018;-89
2022/02/28 15:36:32;;;;;;;;;;;;;;;11.83;55.98;101817.97;145002;930;1018;-89
2022/02/28 15:38:58;;;;;;;;;;;;;;;11.85;56.41;101823.22;145002;922;1019;-88
2022/02/28 15:41:28;;;;;;;;;;;;;;;11.86;56.16;101818.09;145002;924;1017;-90
2022/02/28 15:43:54;;;;;;;;;;;;;;;11.84;56.13;101819.75;145002;921;1016;-88
2022/02/28 15:46:21;;;;;;;;;;;;;;;11.85;55.91;101816.34;145002;924;1016;-89
2022/02/28 15:48:50;;;;;;;;;;;;;;;11.85;56.03;101824.13;145002;922;1017;-89
2022/02/28 15:51:18;;;;;;;;;;;;;;;11.87;56.20;101832.00;145002;923;1016;-90
2022/02/28 15:53:44;;;;;;;;;;;;;;;11.82;56.18;101833.50;145002;922;1015;-87
2022/02/28 15:56:14;;;;;;;;;;;;;;;11.82;55.92;101837.00;145002;914;1016;-88
2022/02/28 15:58:40;;;;;;;;;;;;;;;11.77;55.77;101843.72;145002;921;1016;-90
2022/02/28 16:01:12;;;;;;;;;;;;;;;11.79;55.77;101837.75;145002;924;1014;-85
2022/02/28 16:03:45;;;;;;;;;;;;;;;11.82;56.02;101842.22;145002;922;1018;-82
2022/02/28 16:06:35;;;;;;;;;;;;;;;11.84;55.97;101845.75;145002;923;1016;-83
2022/02/28 16:16:54;;;;;;;;;;;;;;;11.92;55.71;101841.81;145002;601;1392;-86
2022/02/28 16:19:27;;;;;;;;;;;;;;;11.94;55.65;101852.28;145002;920;1016;-80
2022/02/28 16:22:17;;;;;;;;;;;;;;;11.93;55.70;101851.41;145001;569;2000;-91
2022/02/28 16:24:45;;;;;;;;;;;;;;;11.96;55.57;101856.72;145002;919;1018;-88
2022/02/28 16:27:12;;;;;;;;;;;;;;;11.96;55.75;101855.81;145002;918;1017;-88
2022/02/28 16:29:39;;;;;;;;;;;;;;;11.96;55.62;101855.81;145002;920;1018;-90
2022/02/28 16:32:09;;;;;;;;;;;;;;;11.96;55.70;101855.81;145002;918;1018;-85
2022/02/28 16:34:37;;;;;;;;;;;;;;;11.96;55.79;101854.13;145002;920;1017;-91
2022/02/28 16:37:08;;;;;;;;;;;;;;;11.90;55.92;101864.25;145002;906;1017;-91
2022/02/28 16:39:34;;;;;;;;;;;;;;;11.91;56.21;101860.78;145002;920;1017;-85
2022/02/28 16:42:06;;;;;;;;;;;;;;;11.92;56.10;101859.12;145002;917;1017;-89
2022/02/28 16:44:35;;;;;;;;;;;;;;;11.92;56.28;101867.81;145002;919;1017;-90
2022/02/28 16:47:01;;;;;;;;;;;;;;;11.91;56.15;101863.41;145002;918;1017;-89
2022/02/28 16:49:30;;;;;;;;;;;;;;;11.91;56.12;101862.53;145002;915;1022;-86
2022/02/28 16:51:58;;;;;;;;;;;;;;;11.92;56.21;101862.62;145002;917;1021;-87
2022/02/28 16:54:32;;;;;;;;;;;;;;;11.83;56.32;101864.78;145002;919;1018;-88
2022/02/28 16:59:31;;;;;;;;;;;;;;;11.62;56.39;101875.16;145002;946;1019;-91
2022/02/28 17:01:58;;;;;;;;;;;;;;;11.64;56.66;101883.03;145002;924;1017;-90
2022/02/28 17:04:25;;;;;;;;;;;;;;;11.67;56.76;101881.44;145002;924;1016;-90
2022/02/28 17:06:51;;;;;;;;;;;;;;;11.71;56.59;101885.97;145001;922;2000;-89
2022/02/28 17:09:18;;;;;;;;;;;;;;;11.74;56.03;101890.41;145002;923;1017;-92
2022/02/28 17:11:46;;;;;;;;;;;;;;;11.71;55.74;101887.69;145002;922;1016;-87
2022/02/28 17:14:12;;;;;;;;;;;;;;;11.66;56.28;101899.59;145002;927;1017;-88
2022/02/28 17:16:44;;;;;;;;;;;;;;;11.46;57.79;101909.13;145001;921;2000;-89
2022/02/28 17:19:18;;;;;;;;;;;;;;;11.60;57.38;101913.22;145002;924;1017;-91
2022/02/28 17:21:54;;;;;;;;;;;;;;;11.41;57.81;101922.78;145002;921;1016;-88
2022/02/28 17:24:23;;;;;;;;;;;;;;;11.20;60.09;101922.69;145002;923;1016;-87
2022/02/28 17:26:55;;;;;;;;;;;;;;;11.44;58.30;101922.94;145002;921;1018;-89
2022/02/28 17:29:34;;;;;;;;;;;;;;;11.52;58.18;101922.41;145002;922;1016;-82
2022/02/28 17:32:00;;;;;;;;;;;;;;;11.52;58.12;101925.88;145002;921;1018;-90
2022/02/28 17:34:28;;;;;;;;;;;;;;;11.44;58.54;101927.25;145002;923;1016;-87
2022/02/28 17:36:56;;;;;;;;;;;;;;;11.55;57.99;101931.22;145002;921;1016;-89
2022/02/28 17:39:27;;;;;;;;;;;;;;;11.62;58.02;101933.25;145002;923;1015;-89
2022/02/28 17:42:08;;;;;;;;;;;;;;;11.69;57.51;101936.13;145002;921;1016;-92
2022/02/28 17:44:41;;;;;;;;;;;;;;;11.66;58.08;101934.31;145002;923;1016;-88
2022/02/28 17:47:09;;;;;;;;;;;;;;;11.68;57.37;101937.84;145002;921;1017;-88
2022/02/28 17:49:39;;;;;;;;;;;;;;;11.51;57.91;101938.81;145002;922;1018;-82
2022/02/28 17:52:11;;;;;;;;;;;;;;;11.52;58.35;101931.06;145001;920;2000;-90
2022/02/28 17:54:38;;;;;;;;;;;;;;;11.48;57.84;101936.94;145002;924;1016;-90
2022/02/28 17:57:05;;;;;;;;;;;;;;;11.40;58.47;101935.72;145002;922;1016;-88
2022/02/28 17:59:32;;;;;;;;;;;;;;;11.42;57.85;101937.56;145002;924;1016;-89
2022/02/28 18:02:29;;;;;;;;;;;;;;;11.39;57.92;101937.44;145002;922;1016;-81
2022/02/28 18:04:57;;;;;;;;;;;;;;;11.44;57.71;101938.53;145002;920;1018;-89
2022/02/28 18:07:25;;;;;;;;;;;;;;;11.48;57.91;101938.66;145002;917;1018;-88
2022/02/28 18:09:51;;;;;;;;;;;;;;;11.50;57.32;101943.13;145002;919;1018;-89
2022/02/28 18:12:18;;;;;;;;;;;;;;;11.41;57.79;101945.31;145002;913;1019;-89
2022/02/28 18:14:45;;;;;;;;;;;;;;;11.19;58.28;101941.69;145002;919;1017;-90
2022/02/28 18:17:13;;;;;;;;;;;;;;;11.28;57.79;101945.53;145002;917;1019;-90
2022/02/28 18:19:41;;;;;;;;;;;;;;;10.97;58.61;101951.91;145002;919;1018;-90
2022/02/28 18:22:07;;;;;;;;;;;;;;;11.11;57.91;101944.78;145002;917;1017;-89
2022/02/28 18:24:33;;;;;;;;;;;;;;;11.13;58.25;101951.81;145002;916;1018;-88
2022/02/28 18:27:04;;;;;;;;;;;;;;;11.21;57.67;101949.56;145002;916;1018;-92
2022/02/28 18:29:36;;;;;;;;;;;;;;;11.30;58.10;101951.72;145002;919;1022;-90
2022/02/28 18:32:30;;;;;;;;;;;;;;;11.37;57.87;101959.88;145002;918;1018;-87
2022/02/28 18:34:58;;;;;;;;;;;;;;;11.34;58.14;101953.62;145002;923;1021;-88
2022/02/28 18:37:29;;;;;;;;;;;;;;;11.32;58.17;101963.06;145002;921;1018;-89
2022/02/28 18:47:50;;;;;;;;;;;;;;;11.34;57.60;101962.34;145002;573;1399;-87
2022/02/28 18:50:17;;;;;;;;;;;;;;;11.23;57.79;101964.44;145002;921;1017;-87
2022/02/28 18:52:46;;;;;;;;;;;;;;;11.27;57.62;101960.25;145002;919;1021;-85
2022/02/28 18:55:13;;;;;;;;;;;;;;;11.28;57.88;101962.03;145002;922;1017;-87
2022/02/28 18:57:43;;;;;;;;;;;;;;;11.29;57.29;101962.94;145002;919;1019;-88
2022/02/28 19:00:11;;;;;;;;;;;;;;;11.27;57.88;101959.37;145002;921;1016;-88
2022/02/28 19:02:38;;;;;;;;;;;;;;;11.25;57.42;101961.91;145002;920;1020;-88
2022/02/28 19:05:04;;;;;;;;;;;;;;;11.16;57.91;101951.94;145002;921;1016;-89
2022/02/28 19:07:30;;;;;;;;;;;;;;;11.09;58.41;101955.09;145002;919;1016;-87
2022/02/28 19:09:56;;;;;;;;;;;;;;;11.05;57.49;101953.16;145002;922;1020;-85
2022/02/28 19:12:23;;;;;;;;;;;;;;;11.01;57.79;101959.91;145002;919;1016;-86
2022/02/28 19:14:49;;;;;;;;;;;;;;;10.97;57.99;101964.91;145002;922;1016;-87
2022/02/28 19:17:26;;;;;;;;;;;;;;;10.88;57.87;101961.03;145002;920;1019;-86
2022/02/28 19:19:55;;;;;;;;;;;;;;;10.76;59.07;101968.22;145002;921;1016;-87
2022/02/28 19:22:22;;;;;;;;;;;;;;;10.71;58.44;101968.00;145002;920;1016;-90
2022/02/28 19:24:48;;;;;;;;;;;;;;;10.47;58.61;101957.31;145002;922;1016;-87
2022/02/28 19:27:15;;;;;;;;;;;;;;;10.61;58.08;101970.06;145002;916;1019;-87
2022/02/28 19:29:41;;;;;;;;;;;;;;;10.63;58.54;101973.66;145002;922;1019;-88
2022/02/28 19:32:08;;;;;;;;;;;;;;;10.63;58.52;101974.53;145002;920;1017;-86
2022/02/28 19:34:34;;;;;;;;;;;;;;;10.66;58.43;101979.00;145002;921;1016;-87
2022/02/28 19:37:04;;;;;;;;;;;;;;;10.61;58.79;101973.56;145002;920;1016;-89
2022/02/28 19:39:33;;;;;;;;;;;;;;;10.70;58.27;101978.31;145002;622;1380;-87
2022/02/28 19:42:00;;;;;;;;;;;;;;;10.74;58.38;101982.84;145002;921;1019;-88
2022/02/28 19:44:27;;;;;;;;;;;;;;;10.82;58.64;101989.31;145002;919;1016;-89
2022/02/28 19:46:54;;;;;;;;;;;;;;;10.85;58.54;101980.78;145002;921;1018;-86
2022/02/28 19:49:22;;;;;;;;;;;;;;;10.79;58.83;101991.75;145002;919;1016;-85
2022/02/28 19:51:50;;;;;;;;;;;;;;;10.68;60.17;101995.53;145002;921;1016;-88
2022/02/28 19:54:19;;;;;;;;;;;;;;;10.71;59.83;101999.16;145002;919;1016;-87
2022/02/28 19:56:48;;;;;;;;;;;;;;;10.66;60.37;101994.56;145002;920;1019;-87
2022/02/28 19:59:17;;;;;;;;;;;;;;;10.56;60.85;101997.50;145002;919;1016;-87
2022/02/28 20:01:44;;;;;;;;;;;;;;;10.69;59.54;101999.94;145002;921;1021;-89
2022/02/28 20:04:10;;;;;;;;;;;;;;;10.72;60.01;102005.25;145002;919;1016;-89
2022/02/28 20:06:40;;;;;;;;;;;;;;;10.79;59.69;102006.47;145002;921;1016;-87
2022/02/28 20:09:09;;;;;;;;;;;;;;;10.83;60.73;102013.56;145002;919;1020;-90
2022/02/28 20:11:37;;;;;;;;;;;;;;;10.89;59.90;102014.75;145002;920;1018;-88
2022/02/28 20:14:05;;;;;;;;;;;;;;;11.00;59.75;102012.69;145002;919;1017;-91
2022/02/28 20:16:33;;;;;;;;;;;;;;;11.07;60.01;102021.66;145002;921;1020;-87
2022/02/28 20:18:59;;;;;;;;;;;;;;;11.09;59.58;102020.06;145002;919;1016;-87
2022/02/28 20:21:25;;;;;;;;;;;;;;;11.12;59.56;102022.81;145002;917;1018;-87
2022/02/28 20:23:51;;;;;;;;;;;;;;;11.12;59.79;102021.91;145002;919;1019;-88
2022/02/28 20:26:29;;;;;;;;;;;;;;;11.06;60.03;102014.72;145002;921;1018;-89
2022/02/28 20:28:56;;;;;;;;;;;;;;;11.08;59.88;102016.56;145002;919;1016;-90
2022/02/28 20:31:22;;;;;;;;;;;;;;;11.10;59.73;102018.34;145002;917;1020;-86
2022/02/28 20:33:52;;;;;;;;;;;;;;;11.11;59.89;102013.22;145002;919;1018;-88
2022/02/28 20:36:20;;;;;;;;;;;;;;;11.12;59.80;102015.00;145002;921;1016;-88
2022/02/28 20:38:46;;;;;;;;;;;;;;;11.13;60.45;102010.69;145002;919;1016;-87
2022/02/28 20:41:13;;;;;;;;;;;;;;;11.10;60.57;102013.16;145002;920;1017;-86
2022/02/28 20:43:40;;;;;;;;;;;;;;;11.13;60.51;102015.91;145001;919;2000;-89
2022/02/28 20:46:09;;;;;;;;;;;;;;;11.05;60.69;102010.31;145002;921;1017;-88
2022/02/28 20:48:38;;;;;;;;;;;;;;;10.89;60.89;102013.88;145002;918;1020;-88
2022/02/28 20:51:05;;;;;;;;;;;;;;;10.97;60.92;102012.53;145002;921;1019;-87
2022/02/28 20:53:32;;;;;;;;;;;;;;;11.05;60.78;102010.31;145002;920;1021;-88
2022/02/28 20:56:00;;;;;;;;;;;;;;;11.10;60.66;102000.16;145002;921;1017;-87
2022/02/28 20:58:26;;;;;;;;;;;;;;;11.13;60.44;102001.19;145002;919;1018;-89
2022/02/28 21:00:52;;;;;;;;;;;;;;;11.14;60.58;102000.38;145002;917;1019;-89
2022/02/28 21:03:18;;;;;;;;;;;;;;;11.18;60.26;101996.22;145002;918;1021;-89
2022/02/28 21:05:44;;;;;;;;;;;;;;;11.12;60.60;102002.03;145002;921;1016;-89
2022/02/28 21:08:11;;;;;;;;;;;;;;;11.14;60.23;101999.50;145002;919;1016;-86
2022/02/28 21:10:38;;;;;;;;;;;;;;;11.11;60.75;101999.34;145002;920;1017;-87
2022/02/28 21:13:05;;;;;;;;;;;;;;;11.11;60.81;102007.16;145002;919;1016;-88
2022/02/28 21:15:31;;;;;;;;;;;;;;;11.12;60.71;102008.91;145002;921;1017;-89
2022/02/28 21:18:00;;;;;;;;;;;;;;;11.13;61.06;102001.19;145002;914;1016;-86
2022/02/28 21:20:26;;;;;;;;;;;;;;;11.13;61.04;102005.50;145002;921;1020;-86